sensor_id;sensor_type;location;lat;lon;timestamp;pressure;altitude;pressure_sealevel;temperature;humidity
9139;BME280;4604;48.616;9.548;2023-04-02T00:00:13;96138.97;;;8.48;85.63
9139;BME280;4604;48.616;9.548;2023-04-02T00:03:02;96139.66;;;8.50;85.45
9139;BME280;4604;48.616;9.548;2023-04-02T00:05:39;96132.13;;;8.65;84.66
9139;BME280;4604;48.616;9.548;2023-04-02T00:08:22;96139.38;;;8.53;84.66
9139;BME280;4604;48.616;9.548;2023-04-02T00:10:50;96148.03;;;8.63;84.32
9139;BME280;4604;48.616;9.548;2023-04-02T00:13:23;96142.94;;;8.62;84.88
9139;BME280;4604;48.616;9.548;2023-04-02T00:15:54;96150.88;;;8.52;84.85
9139;BME280;4604;48.616;9.548;2023-04-02T00:18:23;96138.13;;;8.57;84.55
9139;BME280;4604;48.616;9.548;2023-04-02T00:20:53;96157.16;;;8.69;83.42
9139;BME280;4604;48.616;9.548;2023-04-02T00:23:21;96140.34;;;8.52;83.75
9139;BME280;4604;48.616;9.548;2023-04-02T00:25:48;96129.28;;;8.48;83.30
9139;BME280;4604;48.616;9.548;2023-04-02T00:28:18;96143.13;;;8.50;83.72
9139;BME280;4604;48.616;9.548;2023-04-02T00:30:47;96141.47;;;8.49;84.13
9139;BME280;4604;48.616;9.548;2023-04-02T00:33:16;96138.28;;;8.46;84.21
9139;BME280;4604;48.616;9.548;2023-04-02T00:35:44;96142.00;;;8.53;84.07
9139;BME280;4604;48.616;9.548;2023-04-02T00:38:18;96151.31;;;8.47;83.73
9139;BME280;4604;48.616;9.548;2023-04-02T00:40:46;96127.66;;;8.38;83.79
9139;BME280;4604;48.616;9.548;2023-04-02T00:43:15;96151.00;;;8.50;83.62
9139;BME280;4604;48.616;9.548;2023-04-02T00:45:43;96143.28;;;8.49;84.09
9139;BME280;4604;48.616;9.548;2023-04-02T00:48:25;96149.72;;;8.27;85.95
9139;BME280;4604;48.616;9.548;2023-04-02T00:50:55;96153.00;;;8.29;86.00
9139;BME280;4604;48.616;9.548;2023-04-02T00:53:26;96135.03;;;8.34;85.92
9139;BME280;4604;48.616;9.548;2023-04-02T00:55:54;96145.56;;;8.24;85.82
9139;BME280;4604;48.616;9.548;2023-04-02T00:58:26;96155.06;;;8.35;85.78
9139;BME280;4604;48.616;9.548;2023-04-02T01:00:54;96155.78;;;8.27;86.81
9139;BME280;4604;48.616;9.548;2023-04-02T01:03:31;96153.47;;;8.24;86.94
9139;BME280;4604;48.616;9.548;2023-04-02T01:06:03;96159.34;;;8.46;86.60
9139;BME280;4604;48.616;9.548;2023-04-02T01:08:46;96165.63;;;8.25;88.04
9139;BME280;4604;48.616;9.548;2023-04-02T01:11:26;96155.00;;;8.17;88.31
9139;BME280;4604;48.616;9.548;2023-04-02T01:14:02;96162.56;;;8.30;87.71
9139;BME280;4604;48.616;9.548;2023-04-02T01:16:41;96159.25;;;8.28;87.55
9139;BME280;4604;48.616;9.548;2023-04-02T01:19:37;96161.53;;;8.50;86.69
9139;BME280;4604;48.616;9.548;2023-04-02T01:22:09;96163.47;;;8.39;87.49
9139;BME280;4604;48.616;9.548;2023-04-02T01:24:44;96171.84;;;8.24;87.87
9139;BME280;4604;48.616;9.548;2023-04-02T01:27:16;96163.78;;;8.35;87.40
9139;BME280;4604;48.616;9.548;2023-04-02T01:29:48;96161.19;;;8.26;88.74
9139;BME280;4604;48.616;9.548;2023-04-02T01:32:19;96166.59;;;8.24;88.63
9139;BME280;4604;48.616;9.548;2023-04-02T01:34:49;96176.25;;;8.24;88.91
9139;BME280;4604;48.616;9.548;2023-04-02T01:37:27;96166.06;;;8.11;89.98
9139;BME280;4604;48.616;9.548;2023-04-02T01:40:08;96162.91;;;8.07;90.67
9139;BME280;4604;48.616;9.548;2023-04-02T01:42:45;96166.03;;;8.21;90.12
9139;BME280;4604;48.616;9.548;2023-04-02T01:45:18;96175.72;;;8.20;90.39
9139;BME280;4604;48.616;9.548;2023-04-02T01:47:46;96168.81;;;8.19;90.65
9139;BME280;4604;48.616;9.548;2023-04-02T01:50:22;96174.34;;;8.16;91.32
9139;BME280;4604;48.616;9.548;2023-04-02T01:52:51;96175.88;;;8.19;91.33
9139;BME280;4604;48.616;9.548;2023-04-02T01:55:24;96167.47;;;8.05;91.04
9139;BME280;4604;48.616;9.548;2023-04-02T01:57:55;96191.78;;;8.17;90.86
9139;BME280;4604;48.616;9.548;2023-04-02T02:00:24;96182.94;;;8.08;90.61
9139;BME280;4604;48.616;9.548;2023-04-02T02:02:52;96191.78;;;8.17;91.29
9139;BME280;4604;48.616;9.548;2023-04-02T02:05:20;96181.69;;;8.22;91.30
9139;BME280;4604;48.616;9.548;2023-04-02T02:07:49;96184.34;;;8.12;92.04
9139;BME280;4604;48.616;9.548;2023-04-02T02:10:19;96189.13;;;8.27;90.85
9139;BME280;4604;48.616;9.548;2023-04-02T02:12:49;96188.03;;;8.29;90.51
9139;BME280;4604;48.616;9.548;2023-04-02T02:15:18;96188.44;;;8.25;91.41
9139;BME280;4604;48.616;9.548;2023-04-02T02:17:47;96195.50;;;8.24;91.50
9139;BME280;4604;48.616;9.548;2023-04-02T02:20:15;96184.16;;;8.24;91.26
9139;BME280;4604;48.616;9.548;2023-04-02T02:22:43;96191.06;;;8.25;91.45
9139;BME280;4604;48.616;9.548;2023-04-02T02:25:13;96175.88;;;8.19;91.57
9139;BME280;4604;48.616;9.548;2023-04-02T02:27:57;96182.91;;;8.28;91.23
9139;BME280;4604;48.616;9.548;2023-04-02T02:30:27;96202.72;;;8.12;93.57
9139;BME280;4604;48.616;9.548;2023-04-02T02:33:00;96194.16;;;8.10;93.65
9139;BME280;4604;48.616;9.548;2023-04-02T02:35:33;96195.41;;;8.06;94.10
9139;BME280;4604;48.616;9.548;2023-04-02T02:38:24;96200.53;;;8.08;94.41
9139;BME280;4604;48.616;9.548;2023-04-02T02:40:55;96208.13;;;8.11;94.70
9139;BME280;4604;48.616;9.548;2023-04-02T02:43:23;96201.47;;;8.07;94.82
9139;BME280;4604;48.616;9.548;2023-04-02T02:45:52;96202.16;;;8.19;94.11
9139;BME280;4604;48.616;9.548;2023-04-02T02:48:24;96204.09;;;8.17;94.15
9139;BME280;4604;48.616;9.548;2023-04-02T02:50:53;96209.75;;;8.12;95.11
9139;BME280;4604;48.616;9.548;2023-04-02T02:53:23;96208.69;;;8.05;96.19
9139;BME280;4604;48.616;9.548;2023-04-02T02:55:52;96212.97;;;8.06;95.85
9139;BME280;4604;48.616;9.548;2023-04-02T02:58:24;96214.78;;;8.05;96.25
9139;BME280;4604;48.616;9.548;2023-04-02T03:00:52;96223.59;;;8.04;95.95
9139;BME280;4604;48.616;9.548;2023-04-02T03:03:23;96220.03;;;7.96;95.31
9139;BME280;4604;48.616;9.548;2023-04-02T03:05:53;96232.47;;;8.03;95.63
9139;BME280;4604;48.616;9.548;2023-04-02T03:08:24;96233.28;;;8.04;95.58
9139;BME280;4604;48.616;9.548;2023-04-02T03:10:55;96236.50;;;8.07;95.42
9139;BME280;4604;48.616;9.548;2023-04-02T03:13:29;96242.59;;;7.98;96.89
9139;BME280;4604;48.616;9.548;2023-04-02T03:16:02;96236.09;;;7.92;97.87
9139;BME280;4604;48.616;9.548;2023-04-02T03:18:44;96250.59;;;7.97;98.64
9139;BME280;4604;48.616;9.548;2023-04-02T03:21:20;96245.63;;;7.93;100.00
9139;BME280;4604;48.616;9.548;2023-04-02T03:23:52;96248.53;;;7.81;100.00
9139;BME280;4604;48.616;9.548;2023-04-02T03:26:24;96254.03;;;7.87;100.00
9139;BME280;4604;48.616;9.548;2023-04-02T03:28:56;96256.41;;;7.90;100.00
9139;BME280;4604;48.616;9.548;2023-04-02T03:31:29;96260.28;;;7.86;100.00
9139;BME280;4604;48.616;9.548;2023-04-02T03:34:03;96255.84;;;7.87;100.00
9139;BME280;4604;48.616;9.548;2023-04-02T03:36:33;96258.88;;;7.92;100.00
9139;BME280;4604;48.616;9.548;2023-04-02T03:39:10;96258.19;;;7.90;100.00
9139;BME280;4604;48.616;9.548;2023-04-02T03:41:40;96265.94;;;7.91;100.00
9139;BME280;4604;48.616;9.548;2023-04-02T03:44:20;96261.78;;;7.99;100.00
9139;BME280;4604;48.616;9.548;2023-04-02T03:46:51;96274.38;;;8.05;100.00
9139;BME280;4604;48.616;9.548;2023-04-02T03:49:27;96268.16;;;8.06;100.00
9139;BME280;4604;48.616;9.548;2023-04-02T03:51:58;96272.19;;;8.00;100.00
9139;BME280;4604;48.616;9.548;2023-04-02T03:54:28;96274.38;;;8.05;100.00
9139;BME280;4604;48.616;9.548;2023-04-02T03:56:56;96282.28;;;8.05;100.00
9139;BME280;4604;48.616;9.548;2023-04-02T03:59:29;96280.59;;;8.04;100.00
9139;BME280;4604;48.616;9.548;2023-04-02T04:02:09;96286.44;;;7.98;100.00
9139;BME280;4604;48.616;9.548;2023-04-02T04:04:40;96270.50;;;7.89;100.00
9139;BME280;4604;48.616;9.548;2023-04-02T04:07:14;96278.94;;;7.74;100.00
9139;BME280;4604;48.616;9.548;2023-04-02T04:09:46;96284.91;;;7.76;100.00
9139;BME280;4604;48.616;9.548;2023-04-02T04:12:23;96285.44;;;7.79;100.00
9139;BME280;4604;48.616;9.548;2023-04-02T04:14:56;96294.84;;;7.82;100.00
9139;BME280;4604;48.616;9.548;2023-04-02T04:17:30;96290.00;;;7.87;100.00
9139;BME280;4604;48.616;9.548;2023-04-02T04:20:09;96289.59;;;7.91;100.00
9139;BME280;4604;48.616;9.548;2023-04-02T04:22:39;96295.13;;;7.98;100.00
9139;BME280;4604;48.616;9.548;2023-04-02T04:25:17;96290.41;;;7.92;100.00
9139;BME280;4604;48.616;9.548;2023-04-02T04:27:54;96300.94;;;7.92;100.00
9139;BME280;4604;48.616;9.548;2023-04-02T04:30:25;96302.19;;;7.98;100.00
9139;BME280;4604;48.616;9.548;2023-04-02T04:32:55;96294.97;;;8.00;100.00
9139;BME280;4604;48.616;9.548;2023-04-02T04:35:29;96300.22;;;8.00;100.00
9139;BME280;4604;48.616;9.548;2023-04-02T04:37:59;96304.94;;;7.96;100.00
9139;BME280;4604;48.616;9.548;2023-04-02T04:40:30;96307.16;;;8.01;100.00
9139;BME280;4604;48.616;9.548;2023-04-02T04:43:01;96307.03;;;8.02;100.00
9139;BME280;4604;48.616;9.548;2023-04-02T04:45:37;96310.63;;;8.01;100.00
9139;BME280;4604;48.616;9.548;2023-04-02T04:48:09;96321.13;;;8.01;100.00
9139;BME280;4604;48.616;9.548;2023-04-02T04:50:45;96324.84;;;7.99;100.00
9139;BME280;4604;48.616;9.548;2023-04-02T04:53:16;96319.19;;;8.03;100.00
9139;BME280;4604;48.616;9.548;2023-04-02T04:55:47;96324.72;;;8.10;100.00
9139;BME280;4604;48.616;9.548;2023-04-02T04:58:20;96331.34;;;8.24;99.28
9139;BME280;4604;48.616;9.548;2023-04-02T05:00:54;96331.91;;;8.18;98.44
9139;BME280;4604;48.616;9.548;2023-04-02T05:03:29;96337.47;;;8.05;100.00
9139;BME280;4604;48.616;9.548;2023-04-02T05:06:07;96335.66;;;7.96;100.00
9139;BME280;4604;48.616;9.548;2023-04-02T05:08:36;96341.31;;;7.91;100.00
9139;BME280;4604;48.616;9.548;2023-04-02T05:11:06;96344.91;;;8.00;100.00
9139;BME280;4604;48.616;9.548;2023-04-02T05:13:39;96345.59;;;8.02;100.00
9139;BME280;4604;48.616;9.548;2023-04-02T05:16:12;96342.72;;;8.05;100.00
9139;BME280;4604;48.616;9.548;2023-04-02T05:18:45;96352.53;;;8.12;99.85
9139;BME280;4604;48.616;9.548;2023-04-02T05:21:20;96355.16;;;8.03;100.00
9139;BME280;4604;48.616;9.548;2023-04-02T05:23:51;96357.91;;;8.11;100.00
9139;BME280;4604;48.616;9.548;2023-04-02T05:26:24;96358.91;;;8.10;100.00
9139;BME280;4604;48.616;9.548;2023-04-02T05:28:56;96352.94;;;7.98;100.00
9139;BME280;4604;48.616;9.548;2023-04-02T05:31:29;96354.59;;;7.99;100.00
9139;BME280;4604;48.616;9.548;2023-04-02T05:34:01;96357.63;;;8.04;100.00
9139;BME280;4604;48.616;9.548;2023-04-02T05:36:30;96364.84;;;8.02;100.00
9139;BME280;4604;48.616;9.548;2023-04-02T05:38:58;96365.09;;;7.99;100.00
9139;BME280;4604;48.616;9.548;2023-04-02T05:41:27;96363.16;;;8.01;100.00
9139;BME280;4604;48.616;9.548;2023-04-02T05:44:03;96375.78;;;8.07;100.00
9139;BME280;4604;48.616;9.548;2023-04-02T05:46:34;96376.03;;;8.24;100.00
9139;BME280;4604;48.616;9.548;2023-04-02T05:49:04;96375.63;;;8.09;100.00
9139;BME280;4604;48.616;9.548;2023-04-02T05:51:38;96375.75;;;7.98;100.00
9139;BME280;4604;48.616;9.548;2023-04-02T05:54:15;96391.94;;;8.03;100.00
9139;BME280;4604;48.616;9.548;2023-04-02T05:56:47;96387.22;;;8.06;100.00
9139;BME280;4604;48.616;9.548;2023-04-02T05:59:20;96391.53;;;8.17;100.00
9139;BME280;4604;48.616;9.548;2023-04-02T06:01:51;96388.63;;;8.20;100.00
9139;BME280;4604;48.616;9.548;2023-04-02T06:04:24;96404.53;;;8.19;100.00
9139;BME280;4604;48.616;9.548;2023-04-02T06:06:58;96395.28;;;8.24;100.00
9139;BME280;4604;48.616;9.548;2023-04-02T06:09:34;96403.00;;;8.26;100.00
9139;BME280;4604;48.616;9.548;2023-04-02T06:12:12;96408.56;;;8.32;100.00
9139;BME280;4604;48.616;9.548;2023-04-02T06:14:42;96406.66;;;8.44;100.00
9139;BME280;4604;48.616;9.548;2023-04-02T06:17:11;96404.72;;;8.56;99.71
9139;BME280;4604;48.616;9.548;2023-04-02T06:19:38;96413.44;;;8.47;100.00
9139;BME280;4604;48.616;9.548;2023-04-02T06:22:19;96418.81;;;8.55;99.98
9139;BME280;4604;48.616;9.548;2023-04-02T06:24:51;96423.81;;;8.48;100.00
9139;BME280;4604;48.616;9.548;2023-04-02T06:27:25;96418.97;;;8.53;99.33
9139;BME280;4604;48.616;9.548;2023-04-02T06:29:56;96419.38;;;8.59;98.91
9139;BME280;4604;48.616;9.548;2023-04-02T06:32:25;96422.44;;;8.64;98.82
9139;BME280;4604;48.616;9.548;2023-04-02T06:34:52;96438.75;;;8.67;98.93
9139;BME280;4604;48.616;9.548;2023-04-02T06:37:24;96443.88;;;8.69;98.82
9139;BME280;4604;48.616;9.548;2023-04-02T06:39:53;96443.31;;;8.75;97.34
9139;BME280;4604;48.616;9.548;2023-04-02T06:42:24;96446.34;;;8.70;97.71
9139;BME280;4604;48.616;9.548;2023-04-02T06:44:55;96452.19;;;8.74;96.79
9139;BME280;4604;48.616;9.548;2023-04-02T06:47:27;96445.09;;;8.84;95.44
9139;BME280;4604;48.616;9.548;2023-04-02T06:49:58;96458.13;;;8.86;95.09
9139;BME280;4604;48.616;9.548;2023-04-02T06:52:31;96455.09;;;8.81;96.22
9139;BME280;4604;48.616;9.548;2023-04-02T06:55:04;96459.25;;;8.93;96.41
9139;BME280;4604;48.616;9.548;2023-04-02T06:57:32;96462.97;;;9.00;96.85
9139;BME280;4604;48.616;9.548;2023-04-02T07:00:00;96441.38;;;8.87;95.61
9139;BME280;4604;48.616;9.548;2023-04-02T07:02:30;96473.72;;;9.16;94.80
9139;BME280;4604;48.616;9.548;2023-04-02T07:05:03;96480.94;;;9.14;94.40
9139;BME280;4604;48.616;9.548;2023-04-02T07:07:31;96482.03;;;9.12;94.31
9139;BME280;4604;48.616;9.548;2023-04-02T07:09:58;96485.78;;;9.09;95.53
9139;BME280;4604;48.616;9.548;2023-04-02T07:12:28;96490.09;;;9.10;93.39
9139;BME280;4604;48.616;9.548;2023-04-02T07:14:55;96497.44;;;9.07;94.22
9139;BME280;4604;48.616;9.548;2023-04-02T07:17:21;96492.16;;;9.16;93.81
9139;BME280;4604;48.616;9.548;2023-04-02T07:19:48;96498.09;;;9.28;93.48
9139;BME280;4604;48.616;9.548;2023-04-02T07:22:15;96503.63;;;9.35;93.87
9139;BME280;4604;48.616;9.548;2023-04-02T07:24:44;96508.63;;;9.38;89.06
9139;BME280;4604;48.616;9.548;2023-04-02T07:27:12;96483.56;;;9.14;89.90
9139;BME280;4604;48.616;9.548;2023-04-02T07:29:39;96509.88;;;9.24;89.66
9139;BME280;4604;48.616;9.548;2023-04-02T07:32:08;96503.66;;;9.25;89.72
9139;BME280;4604;48.616;9.548;2023-04-02T07:34:35;96521.69;;;9.10;88.45
9139;BME280;4604;48.616;9.548;2023-04-02T07:37:01;96516.03;;;9.05;89.05
9139;BME280;4604;48.616;9.548;2023-04-02T07:39:28;96527.91;;;9.09;88.80
9139;BME280;4604;48.616;9.548;2023-04-02T07:42:00;96515.84;;;9.26;88.91
9139;BME280;4604;48.616;9.548;2023-04-02T07:44:27;96526.25;;;9.28;89.24
9139;BME280;4604;48.616;9.548;2023-04-02T07:46:54;96534.28;;;9.16;89.97
9139;BME280;4604;48.616;9.548;2023-04-02T07:49:20;96534.84;;;9.30;88.80
9139;BME280;4604;48.616;9.548;2023-04-02T07:51:48;96535.53;;;9.22;89.77
9139;BME280;4604;48.616;9.548;2023-04-02T07:54:17;96538.72;;;9.26;90.25
9139;BME280;4604;48.616;9.548;2023-04-02T07:56:46;96543.97;;;9.35;89.07
9139;BME280;4604;48.616;9.548;2023-04-02T07:59:15;96547.00;;;9.31;88.81
9139;BME280;4604;48.616;9.548;2023-04-02T08:01:41;96544.69;;;9.18;89.67
9139;BME280;4604;48.616;9.548;2023-04-02T08:04:16;96549.13;;;9.27;90.10
9139;BME280;4604;48.616;9.548;2023-04-02T08:06:43;96561.97;;;9.40;89.41
9139;BME280;4604;48.616;9.548;2023-04-02T08:09:10;96558.25;;;9.33;87.98
9139;BME280;4604;48.616;9.548;2023-04-02T08:11:37;96562.41;;;9.35;87.66
9139;BME280;4604;48.616;9.548;2023-04-02T08:14:04;96562.69;;;9.42;88.45
9139;BME280;4604;48.616;9.548;2023-04-02T08:16:47;96571.28;;;9.34;86.91
9139;BME280;4604;48.616;9.548;2023-04-02T08:19:14;96561.16;;;9.30;86.31
9139;BME280;4604;48.616;9.548;2023-04-02T08:21:41;96564.75;;;9.38;87.09
9139;BME280;4604;48.616;9.548;2023-04-02T08:24:08;96572.38;;;9.51;85.03
9139;BME280;4604;48.616;9.548;2023-04-02T08:26:35;96574.03;;;9.33;86.72
9139;BME280;4604;48.616;9.548;2023-04-02T08:29:02;96578.88;;;9.57;85.55
9139;BME280;4604;48.616;9.548;2023-04-02T08:31:28;96590.94;;;9.40;86.16
9139;BME280;4604;48.616;9.548;2023-04-02T08:33:57;96589.28;;;9.49;87.24
9139;BME280;4604;48.616;9.548;2023-04-02T08:36:27;96586.94;;;9.36;87.48
9139;BME280;4604;48.616;9.548;2023-04-02T08:38:55;96587.06;;;9.44;89.60
9139;BME280;4604;48.616;9.548;2023-04-02T08:41:23;96596.63;;;9.55;91.20
9139;BME280;4604;48.616;9.548;2023-04-02T08:44:02;96591.63;;;9.52;91.58
9139;BME280;4604;48.616;9.548;2023-04-02T08:46:37;96599.81;;;9.58;92.55
9139;BME280;4604;48.616;9.548;2023-04-02T08:49:12;96604.50;;;9.64;93.09
9139;BME280;4604;48.616;9.548;2023-04-02T08:51:40;96606.28;;;9.74;92.10
9139;BME280;4604;48.616;9.548;2023-04-02T08:54:14;96612.38;;;9.74;92.42
9139;BME280;4604;48.616;9.548;2023-04-02T08:56:46;96617.78;;;9.73;90.47
9139;BME280;4604;48.616;9.548;2023-04-02T08:59:22;96613.06;;;9.86;90.48
9139;BME280;4604;48.616;9.548;2023-04-02T09:01:57;96618.63;;;9.83;90.23
9139;BME280;4604;48.616;9.548;2023-04-02T09:04:27;96618.75;;;9.91;88.12
9139;BME280;4604;48.616;9.548;2023-04-02T09:06:55;96615.13;;;9.82;88.73
9139;BME280;4604;48.616;9.548;2023-04-02T09:09:23;96621.09;;;9.84;90.00
9139;BME280;4604;48.616;9.548;2023-04-02T09:11:52;96631.53;;;9.86;90.00
9139;BME280;4604;48.616;9.548;2023-04-02T09:14:23;96634.41;;;10.02;88.99
9139;BME280;4604;48.616;9.548;2023-04-02T09:16:54;96630.91;;;10.02;87.90
9139;BME280;4604;48.616;9.548;2023-04-02T09:19:22;96644.38;;;9.99;88.07
9139;BME280;4604;48.616;9.548;2023-04-02T09:22:08;96639.31;;;10.25;85.58
9139;BME280;4604;48.616;9.548;2023-04-02T09:24:37;96650.19;;;10.12;86.83
9139;BME280;4604;48.616;9.548;2023-04-02T09:27:16;96651.31;;;10.10;85.53
9139;BME280;4604;48.616;9.548;2023-04-02T09:29:45;96654.41;;;9.95;87.90
9139;BME280;4604;48.616;9.548;2023-04-02T09:32:39;96653.09;;;10.09;89.50
9139;BME280;4604;48.616;9.548;2023-04-02T09:35:12;96657.81;;;10.15;90.35
9139;BME280;4604;48.616;9.548;2023-04-02T09:37:42;96655.19;;;10.05;89.18
9139;BME280;4604;48.616;9.548;2023-04-02T09:40:24;96655.03;;;10.07;88.89
9139;BME280;4604;48.616;9.548;2023-04-02T09:43:05;96678.63;;;10.08;88.00
9139;BME280;4604;48.616;9.548;2023-04-02T09:45:35;96678.47;;;10.20;86.90
9139;BME280;4604;48.616;9.548;2023-04-02T09:48:14;96679.78;;;9.96;84.06
9139;BME280;4604;48.616;9.548;2023-04-02T09:50:43;96680.88;;;10.03;84.79
9139;BME280;4604;48.616;9.548;2023-04-02T09:53:27;96687.75;;;10.24;83.82
9139;BME280;4604;48.616;9.548;2023-04-02T09:56:09;96691.38;;;10.33;82.83
9139;BME280;4604;48.616;9.548;2023-04-02T09:58:36;96694.53;;;10.36;82.42
9139;BME280;4604;48.616;9.548;2023-04-02T10:01:03;96693.03;;;10.14;83.42
9139;BME280;4604;48.616;9.548;2023-04-02T10:03:33;96694.03;;;10.13;84.53
9139;BME280;4604;48.616;9.548;2023-04-02T10:06:05;96700.81;;;10.25;83.50
9139;BME280;4604;48.616;9.548;2023-04-02T10:08:36;96708.03;;;10.14;82.68
9139;BME280;4604;48.616;9.548;2023-04-02T10:11:07;96699.31;;;10.03;82.86
9139;BME280;4604;48.616;9.548;2023-04-02T10:13:50;96708.19;;;10.22;83.14
9139;BME280;4604;48.616;9.548;2023-04-02T10:16:24;96709.84;;;10.33;82.20
9139;BME280;4604;48.616;9.548;2023-04-02T10:18:58;96720.28;;;10.15;82.61
9139;BME280;4604;48.616;9.548;2023-04-02T10:21:28;96716.63;;;10.25;82.06
9139;BME280;4604;48.616;9.548;2023-04-02T10:23:57;96718.06;;;10.30;82.14
9139;BME280;4604;48.616;9.548;2023-04-02T10:26:41;96712.88;;;10.38;83.13
9139;BME280;4604;48.616;9.548;2023-04-02T10:29:22;96721.19;;;10.43;83.96
9139;BME280;4604;48.616;9.548;2023-04-02T10:31:58;96728.38;;;10.50;82.39
9139;BME280;4604;48.616;9.548;2023-04-02T10:34:33;96716.63;;;10.73;80.15
9139;BME280;4604;48.616;9.548;2023-04-02T10:37:11;96718.63;;;10.70;81.82
9139;BME280;4604;48.616;9.548;2023-04-02T10:39:46;96722.31;;;10.78;80.37
9139;BME280;4604;48.616;9.548;2023-04-02T10:42:24;96721.84;;;10.55;81.82
9139;BME280;4604;48.616;9.548;2023-04-02T10:44:54;96725.84;;;10.68;80.53
9139;BME280;4604;48.616;9.548;2023-04-02T10:47:32;96725.41;;;10.73;80.08
9139;BME280;4604;48.616;9.548;2023-04-02T10:50:22;96736.91;;;11.09;79.08
9139;BME280;4604;48.616;9.548;2023-04-02T10:52:54;96740.97;;;11.04;79.52
9139;BME280;4604;48.616;9.548;2023-04-02T10:55:28;96737.97;;;11.17;79.04
9139;BME280;4604;48.616;9.548;2023-04-02T10:58:02;96741.53;;;11.25;78.91
9139;BME280;4604;48.616;9.548;2023-04-02T11:00:34;96744.38;;;11.14;78.92
9139;BME280;4604;48.616;9.548;2023-04-02T11:03:05;96748.53;;;11.44;78.47
9139;BME280;4604;48.616;9.548;2023-04-02T11:05:40;96753.63;;;11.73;77.24
9139;BME280;4604;48.616;9.548;2023-04-02T11:08:16;96751.03;;;11.82;76.97
9139;BME280;4604;48.616;9.548;2023-04-02T11:10:47;96755.22;;;12.02;75.92
9139;BME280;4604;48.616;9.548;2023-04-02T11:13:20;96760.28;;;12.13;75.57
9139;BME280;4604;48.616;9.548;2023-04-02T11:15:50;96748.81;;;12.31;73.88
9139;BME280;4604;48.616;9.548;2023-04-02T11:18:26;96755.28;;;12.54;73.28
9139;BME280;4604;48.616;9.548;2023-04-02T11:20:56;96754.47;;;12.54;71.86
9139;BME280;4604;48.616;9.548;2023-04-02T11:23:27;96757.00;;;12.37;72.32
9139;BME280;4604;48.616;9.548;2023-04-02T11:26:35;96759.16;;;12.42;72.47
9139;BME280;4604;48.616;9.548;2023-04-02T11:29:14;96759.41;;;12.31;72.90
9139;BME280;4604;48.616;9.548;2023-04-02T11:31:45;96769.41;;;12.37;73.83
9139;BME280;4604;48.616;9.548;2023-04-02T11:34:14;96768.63;;;12.45;72.77
9139;BME280;4604;48.616;9.548;2023-04-02T11:37:02;96764.97;;;12.46;73.57
9139;BME280;4604;48.616;9.548;2023-04-02T11:39:51;96770.16;;;12.55;73.89
9139;BME280;4604;48.616;9.548;2023-04-02T11:42:26;96765.88;;;12.54;72.28
9139;BME280;4604;48.616;9.548;2023-04-02T11:44:55;96771.63;;;12.50;71.76
9139;BME280;4604;48.616;9.548;2023-04-02T11:47:25;96784.72;;;12.33;71.42
9139;BME280;4604;48.616;9.548;2023-04-02T11:52:52;96781.56;;;12.12;72.97
9139;BME280;4604;48.616;9.548;2023-04-02T11:55:23;96794.56;;;11.87;73.96
9139;BME280;4604;48.616;9.548;2023-04-02T12:01:19;96789.19;;;11.61;76.00
9139;BME280;4604;48.616;9.548;2023-04-02T12:04:09;96786.31;;;11.72;76.22
9139;BME280;4604;48.616;9.548;2023-04-02T12:06:50;96788.19;;;11.80;76.37
9139;BME280;4604;48.616;9.548;2023-04-02T12:09:20;96799.09;;;11.77;76.60
9139;BME280;4604;48.616;9.548;2023-04-02T12:11:48;96789.81;;;11.73;76.75
9139;BME280;4604;48.616;9.548;2023-04-02T12:14:42;96790.69;;;11.64;77.72
9139;BME280;4604;48.616;9.548;2023-04-02T12:17:24;96797.50;;;11.66;76.66
9139;BME280;4604;48.616;9.548;2023-04-02T12:19:54;96789.56;;;11.66;77.37
9139;BME280;4604;48.616;9.548;2023-04-02T12:22:23;96791.66;;;11.63;77.57
9139;BME280;4604;48.616;9.548;2023-04-02T12:24:53;96810.03;;;11.82;77.17
9139;BME280;4604;48.616;9.548;2023-04-02T12:27:24;96800.44;;;11.81;76.34
9139;BME280;4604;48.616;9.548;2023-04-02T12:29:52;96814.38;;;11.83;76.13
9139;BME280;4604;48.616;9.548;2023-04-02T12:32:24;96813.19;;;11.95;76.47
9139;BME280;4604;48.616;9.548;2023-04-02T12:34:52;96817.25;;;11.90;75.40
9139;BME280;4604;48.616;9.548;2023-04-02T12:37:22;96822.03;;;11.59;75.83
9139;BME280;4604;48.616;9.548;2023-04-02T12:39:54;96821.66;;;11.53;77.13
9139;BME280;4604;48.616;9.548;2023-04-02T12:42:31;96823.53;;;11.61;75.93
9139;BME280;4604;48.616;9.548;2023-04-02T12:45:03;96825.13;;;11.54;76.52
9139;BME280;4604;48.616;9.548;2023-04-02T12:47:32;96819.69;;;11.28;78.47
9139;BME280;4604;48.616;9.548;2023-04-02T12:50:00;96826.13;;;11.43;78.37
9139;BME280;4604;48.616;9.548;2023-04-02T12:52:28;96821.91;;;11.50;79.29
9139;BME280;4604;48.616;9.548;2023-04-02T12:54:56;96830.97;;;11.20;81.88
9139;BME280;4604;48.616;9.548;2023-04-02T12:57:37;96815.91;;;11.30;81.43
9139;BME280;4604;48.616;9.548;2023-04-02T13:00:29;96827.84;;;11.34;81.63
9139;BME280;4604;48.616;9.548;2023-04-02T13:03:18;96822.56;;;11.34;79.55
9139;BME280;4604;48.616;9.548;2023-04-02T13:05:50;96829.25;;;11.29;80.67
9139;BME280;4604;48.616;9.548;2023-04-02T13:08:22;96829.72;;;11.24;80.62
9139;BME280;4604;48.616;9.548;2023-04-02T13:10:55;96828.34;;;11.48;78.89
9139;BME280;4604;48.616;9.548;2023-04-02T13:13:28;96834.28;;;11.32;79.05
9139;BME280;4604;48.616;9.548;2023-04-02T13:16:06;96833.22;;;11.43;79.07
9139;BME280;4604;48.616;9.548;2023-04-02T13:18:48;96828.72;;;11.53;78.69
9139;BME280;4604;48.616;9.548;2023-04-02T13:21:24;96839.56;;;11.32;79.57
9139;BME280;4604;48.616;9.548;2023-04-02T13:23:52;96837.94;;;11.49;78.22
9139;BME280;4604;48.616;9.548;2023-04-02T13:26:20;96837.44;;;11.35;78.63
9139;BME280;4604;48.616;9.548;2023-04-02T13:28:56;96834.69;;;11.27;78.01
9139;BME280;4604;48.616;9.548;2023-04-02T13:31:23;96845.16;;;11.19;78.00
9139;BME280;4604;48.616;9.548;2023-04-02T13:33:51;96846.28;;;11.17;77.91
9139;BME280;4604;48.616;9.548;2023-04-02T13:36:17;96842.28;;;11.12;76.46
9139;BME280;4604;48.616;9.548;2023-04-02T13:38:44;96845.75;;;11.13;76.64
9139;BME280;4604;48.616;9.548;2023-04-02T13:41:18;96845.19;;;11.09;75.78
9139;BME280;4604;48.616;9.548;2023-04-02T13:43:47;96849.81;;;10.98;77.44
9139;BME280;4604;48.616;9.548;2023-04-02T13:46:18;96851.44;;;11.08;77.63
9139;BME280;4604;48.616;9.548;2023-04-02T13:48:46;96849.50;;;11.10;77.93
9139;BME280;4604;48.616;9.548;2023-04-02T13:51:16;96854.78;;;11.10;78.77
9139;BME280;4604;48.616;9.548;2023-04-02T13:53:44;96850.84;;;11.24;79.59
9139;BME280;4604;48.616;9.548;2023-04-02T13:56:13;96850.16;;;11.22;80.02
9139;BME280;4604;48.616;9.548;2023-04-02T13:58:40;96855.56;;;11.21;80.82
9139;BME280;4604;48.616;9.548;2023-04-02T14:01:07;96859.69;;;11.33;81.17